Time;durP1;ratioP1;P1;durP2;ratioP2;P2;SDS_P1;SDS_P2;PMS_P1;PMS_P2;Temp;Humidity;BMP_temperature;BMP_pressure;BME280_temperature;BME280_humidity;BME280_pressure;Samples;Min_cycle;Max_cycle;Signal;HPM_P1;HPM_P2
2023/12/27 00:01:45;;;;;;;2.20;1.35;;;8.80;73.40;;;;;;4954912;29;20027;-76
2023/12/27 00:04:11;;;;;;;2.47;1.63;;;8.70;73.60;;;;;;4954814;28;20026;-75
2023/12/27 00:06:36;;;;;;;2.38;1.42;;;8.80;73.60;;;;;;4954911;29;20035;-75
2023/12/27 00:09:03;;;;;;;4.80;1.88;;;8.80;73.50;;;;;;4954758;28;20034;-77
2023/12/27 00:11:29;;;;;;;3.40;1.88;;;8.80;73.50;;;;;;4954393;28;20024;-76
2023/12/27 00:13:54;;;;;;;3.53;1.50;;;8.90;73.40;;;;;;4954707;29;20401;-76
2023/12/27 00:16:20;;;;;;;3.67;1.77;;;8.80;73.30;;;;;;4937589;29;20023;-74
2023/12/27 00:18:45;;;;;;;3.13;1.63;;;8.90;73.30;;;;;;4954874;29;20074;-76
2023/12/27 00:21:11;;;;;;;2.47;1.60;;;8.80;73.50;;;;;;4954697;28;20469;-75
2023/12/27 00:23:37;;;;;;;3.13;1.48;;;8.80;73.40;;;;;;4954723;28;20038;-76
2023/12/27 00:26:03;;;;;;;4.28;1.92;;;8.80;73.30;;;;;;4954555;28;20090;-75
2023/12/27 00:28:28;;;;;;;2.92;1.45;;;8.70;73.30;;;;;;4937430;29;20028;-75
2023/12/27 00:30:54;;;;;;;3.65;1.98;;;8.70;73.20;;;;;;4954659;28;20058;-75
2023/12/27 00:33:19;;;;;;;5.82;2.20;;;8.70;73.20;;;;;;4937247;29;20055;-75
2023/12/27 00:35:45;;;;;;;8.73;2.60;;;8.70;73.80;;;;;;4954474;28;20028;-74
2023/12/27 00:38:11;;;;;;;6.47;2.38;;;8.70;73.60;;;;;;4954511;29;20389;-76
2023/12/27 00:40:36;;;;;;;6.50;2.53;;;8.60;73.60;;;;;;4954546;28;20043;-75
2023/12/27 00:43:02;;;;;;;5.13;2.03;;;8.60;73.60;;;;;;4954486;29;20059;-75
2023/12/27 00:45:28;;;;;;;5.55;2.28;;;8.60;73.50;;;;;;4955732;28;20019;-74
2023/12/27 00:47:53;;;;;;;6.18;2.55;;;8.60;73.50;;;;;;4958132;29;20030;-76
2023/12/27 00:50:19;;;;;;;4.15;2.40;;;8.60;73.50;;;;;;4958197;29;20031;-77
2023/12/27 00:52:45;;;;;;;4.63;2.20;;;8.60;73.70;;;;;;4957995;29;20039;-76
2023/12/27 00:55:10;;;;;;;6.78;2.60;;;8.50;73.70;;;;;;4957956;28;20027;-75
2023/12/27 00:57:36;;;;;;;7.18;2.42;;;8.50;73.80;;;;;;4957824;28;20070;-76
2023/12/27 01:00:03;;;;;;;5.85;2.40;;;8.50;73.80;;;;;;4958071;29;20469;-76
2023/12/27 01:02:29;;;;;;;5.63;2.72;;;8.50;73.80;;;;;;4957877;28;20139;-76
2023/12/27 01:04:55;;;;;;;6.07;2.50;;;8.50;73.80;;;;;;4962405;29;20504;-76
2023/12/27 01:07:21;;;;;;;4.78;2.63;;;8.40;73.80;;;;;;4958066;28;20404;-77
2023/12/27 01:09:47;;;;;;;8.65;2.85;;;8.40;74.00;;;;;;4957798;29;20027;-75
2023/12/27 01:12:13;;;;;;;9.88;2.88;;;8.40;74.00;;;;;;4957828;28;20027;-81
2023/12/27 01:14:38;;;;;;;4.32;2.60;;;8.40;74.20;;;;;;4957777;28;20038;-77
2023/12/27 01:17:04;;;;;;;6.22;2.85;;;8.30;74.20;;;;;;4957690;28;20070;-78
2023/12/27 01:19:29;;;;;;;3.70;2.33;;;8.30;74.20;;;;;;4957784;28;20031;-79
2023/12/27 01:21:55;;;;;;;7.10;2.40;;;8.40;74.10;;;;;;4957660;29;20031;-75
2023/12/27 01:24:21;;;;;;;4.70;2.20;;;8.40;74.00;;;;;;4957401;29;20019;-74
2023/12/27 01:26:46;;;;;;;5.15;2.47;;;8.40;73.70;;;;;;4957379;29;20038;-74
2023/12/27 01:29:12;;;;;;;5.50;2.47;;;8.50;73.80;;;;;;4940105;29;20035;-74
2023/12/27 01:31:37;;;;;;;5.90;2.50;;;8.40;73.70;;;;;;4940221;29;20031;-77
2023/12/27 01:34:03;;;;;;;4.60;2.45;;;8.40;73.80;;;;;;4957284;29;20090;-76
2023/12/27 01:36:28;;;;;;;3.85;1.92;;;8.40;73.70;;;;;;4957234;28;20027;-75
2023/12/27 01:38:54;;;;;;;8.38;3.20;;;8.40;73.60;;;;;;4957230;29;20055;-75
2023/12/27 01:41:19;;;;;;;6.50;2.40;;;8.40;73.70;;;;;;4957102;28;20027;-76
2023/12/27 01:43:45;;;;;;;5.55;2.10;;;8.40;73.70;;;;;;4957139;29;20024;-75
2023/12/27 01:46:12;;;;;;;4.75;2.25;;;8.30;73.60;;;;;;4957026;28;20090;-76
2023/12/27 01:48:38;;;;;;;4.57;2.00;;;8.30;73.60;;;;;;4957095;29;20135;-74
2023/12/27 01:51:04;;;;;;;4.68;2.53;;;8.30;73.60;;;;;;4956919;28;20019;-75
2023/12/27 01:53:30;;;;;;;6.03;2.42;;;8.20;73.60;;;;;;4956878;29;20504;-75
2023/12/27 01:55:56;;;;;;;5.10;2.30;;;8.10;73.90;;;;;;4956971;28;20023;-75
2023/12/27 01:58:22;;;;;;;5.72;2.03;;;8.00;74.10;;;;;;4956126;28;20056;-75
2023/12/27 02:00:48;;;;;;;7.65;2.60;;;8.00;74.30;;;;;;4939488;29;20396;-74
2023/12/27 02:03:14;;;;;;;6.05;2.05;;;8.00;74.40;;;;;;4956717;28;20400;-75
2023/12/27 02:05:40;;;;;;;8.63;2.70;;;7.90;74.60;;;;;;4956632;28;20019;-74
2023/12/27 02:08:11;;;;;;;6.88;2.38;;;7.90;74.70;;;;;;4949060;28;20041;-73
2023/12/27 02:10:37;;;;;;;6.68;1.90;;;7.90;74.70;;;;;;4975822;28;20061;-77
2023/12/27 02:13:04;;;;;;;7.53;2.22;;;7.90;74.60;;;;;;4975437;28;20512;-74
2023/12/27 02:15:29;;;;;;;7.03;2.20;;;7.90;74.70;;;;;;4975748;28;20110;-75
2023/12/27 02:17:56;;;;;;;5.47;2.15;;;7.90;74.90;;;;;;4958388;28;20095;-75
2023/12/27 02:20:22;;;;;;;5.40;1.90;;;7.90;74.60;;;;;;4975721;28;20085;-75
2023/12/27 02:22:50;;;;;;;12.05;2.30;;;7.90;74.70;;;;;;4975845;28;20081;-75
2023/12/27 02:25:16;;;;;;;5.25;1.70;;;7.90;74.80;;;;;;4975387;28;20027;-75
2023/12/27 02:27:41;;;;;;;4.75;2.13;;;7.90;74.70;;;;;;4975664;28;20026;-76
2023/12/27 02:30:15;;;;;;;5.28;2.15;;;7.80;74.60;;;;;;4975572;28;20388;-75
2023/12/27 02:32:40;;;;;;;4.32;2.05;;;7.80;74.70;;;;;;4975485;28;20109;-75
2023/12/27 02:35:07;;;;;;;6.25;2.30;;;7.70;74.90;;;;;;4958065;28;20034;-76
2023/12/27 02:37:32;;;;;;;6.60;2.50;;;7.80;74.80;;;;;;4975416;28;20030;-75
2023/12/27 02:39:59;;;;;;;7.63;2.67;;;7.70;75.00;;;;;;4975456;28;20026;-78
2023/12/27 02:42:24;;;;;;;6.10;2.25;;;7.70;75.30;;;;;;4975349;28;20077;-74
2023/12/27 02:44:50;;;;;;;4.97;2.42;;;7.70;75.50;;;;;;4975286;28;20027;-75
2023/12/27 02:47:15;;;;;;;7.45;2.20;;;7.60;75.40;;;;;;4957872;28;20022;-73
2023/12/27 02:49:41;;;;;;;4.70;2.00;;;7.60;75.70;;;;;;4975159;28;20026;-74
2023/12/27 02:52:07;;;;;;;7.35;2.47;;;7.50;75.80;;;;;;4975118;28;20054;-75
2023/12/27 02:54:33;;;;;;;6.63;2.50;;;7.50;76.00;;;;;;4974929;28;20074;-75
2023/12/27 02:56:58;;;;;;;4.30;2.03;;;7.50;75.90;;;;;;4974968;28;20101;-77
2023/12/27 02:59:24;;;;;;;8.70;2.30;;;7.50;75.90;;;;;;4975105;28;20031;-74
2023/12/27 03:01:50;;;;;;;4.97;2.10;;;7.50;76.00;;;;;;4957576;28;20031;-76
2023/12/27 03:04:16;;;;;;;7.50;2.25;;;7.50;76.10;;;;;;4974988;28;20106;-75
2023/12/27 03:06:41;;;;;;;5.18;2.05;;;7.50;76.10;;;;;;4974733;28;20432;-75
2023/12/27 03:09:07;;;;;;;5.90;2.50;;;7.40;76.10;;;;;;4974071;28;20579;-76
2023/12/27 03:11:33;;;;;;;4.22;2.22;;;7.40;76.30;;;;;;4974846;28;20023;-76
2023/12/27 03:13:58;;;;;;;6.70;2.28;;;7.30;76.50;;;;;;4974727;28;20034;-77
2023/12/27 03:16:24;;;;;;;3.40;1.83;;;7.20;76.60;;;;;;4974696;28;20472;-75
2023/12/27 03:18:49;;;;;;;7.20;1.92;;;7.20;76.70;;;;;;4974723;28;20037;-74
2023/12/27 03:21:15;;;;;;;6.38;2.25;;;7.10;77.20;;;;;;4974735;28;20034;-75
2023/12/27 03:23:40;;;;;;;7.10;2.70;;;6.90;77.80;;;;;;4974746;28;20060;-75
2023/12/27 03:26:06;;;;;;;5.28;2.60;;;6.90;78.40;;;;;;4974528;28;20115;-75
2023/12/27 03:28:31;;;;;;;5.35;2.38;;;6.80;78.50;;;;;;4974552;28;20023;-74
2023/12/27 03:30:57;;;;;;;7.78;2.42;;;6.80;78.70;;;;;;4974462;28;20059;-78
2023/12/27 03:33:22;;;;;;;5.38;2.33;;;6.60;79.10;;;;;;4974459;28;20109;-74
2023/12/27 03:35:48;;;;;;;4.55;2.40;;;6.60;79.10;;;;;;4957081;28;20118;-74
2023/12/27 03:38:13;;;;;;;8.10;2.50;;;6.60;79.00;;;;;;4974287;28;20560;-74
2023/12/27 03:40:39;;;;;;;8.82;2.50;;;6.60;79.10;;;;;;4974437;28;20023;-75
2023/12/27 03:43:05;;;;;;;7.35;2.25;;;6.50;80.00;;;;;;4974360;28;20361;-75
2023/12/27 03:45:30;;;;;;;4.63;2.38;;;6.60;79.30;;;;;;4974145;28;20034;-76
2023/12/27 03:47:56;;;;;;;3.30;1.80;;;6.50;79.30;;;;;;4974312;28;20045;-76
2023/12/27 03:50:21;;;;;;;5.18;2.35;;;6.60;79.20;;;;;;4974087;28;20033;-75
2023/12/27 03:52:47;;;;;;;3.85;2.03;;;6.70;79.10;;;;;;4974085;28;20038;-75
2023/12/27 03:55:12;;;;;;;7.03;2.33;;;6.70;78.90;;;;;;4974209;28;20035;-75
2023/12/27 03:57:38;;;;;;;5.60;1.95;;;6.70;78.70;;;;;;4953413;29;20035;-75
2023/12/27 04:00:10;;;;;;;3.30;1.90;;;6.70;78.60;;;;;;4954869;29;20031;-75
2023/12/27 04:02:35;;;;;;;4.38;1.77;;;6.70;78.50;;;;;;4954883;28;20529;-75
2023/12/27 04:05:01;;;;;;;3.60;1.80;;;6.60;78.40;;;;;;4954799;28;20174;-76
2023/12/27 04:07:28;;;;;;;4.57;2.25;;;6.60;78.40;;;;;;4954769;29;20357;-76
2023/12/27 04:09:53;;;;;;;3.22;1.70;;;6.70;78.30;;;;;;4953512;28;20024;-75
2023/12/27 04:12:19;;;;;;;6.15;1.85;;;6.60;78.30;;;;;;4954745;29;20043;-75
2023/12/27 04:14:44;;;;;;;5.55;2.03;;;6.60;78.20;;;;;;4954631;29;20036;-75
2023/12/27 04:17:10;;;;;;;3.88;2.10;;;6.60;77.90;;;;;;4954666;29;20024;-75
2023/12/27 04:19:36;;;;;;;7.55;2.05;;;6.50;78.00;;;;;;4954652;28;20110;-75
2023/12/27 04:22:01;;;;;;;2.95;1.75;;;6.50;77.90;;;;;;4958498;29;20483;-74
2023/12/27 04:24:27;;;;;;;3.67;1.95;;;6.40;78.00;;;;;;4958480;29;20020;-74
2023/12/27 04:26:52;;;;;;;4.82;2.13;;;6.40;78.10;;;;;;4958817;29;20059;-75
2023/12/27 04:29:18;;;;;;;6.75;2.20;;;6.40;78.10;;;;;;4958428;29;20401;-76
2023/12/27 04:31:43;;;;;;;5.00;1.85;;;6.40;78.00;;;;;;4958424;29;20380;-76
2023/12/27 04:34:09;;;;;;;7.15;2.80;;;6.40;77.70;;;;;;4958146;29;20035;-75
2023/12/27 04:36:37;;;;;;;5.30;2.75;;;6.40;77.70;;;;;;4958223;29;20027;-77
2023/12/27 04:39:03;;;;;;;5.50;2.85;;;6.40;77.60;;;;;;4958207;28;20028;-76
2023/12/27 04:41:29;;;;;;;6.30;3.03;;;6.30;77.60;;;;;;4958206;29;20031;-76
2023/12/27 04:43:54;;;;;;;4.68;2.70;;;6.30;77.40;;;;;;4958103;29;20416;-76
2023/12/27 04:46:20;;;;;;;5.82;2.67;;;6.20;77.40;;;;;;4958088;29;20353;-75
2023/12/27 04:48:45;;;;;;;5.88;2.72;;;6.30;77.40;;;;;;4958050;29;20067;-76
2023/12/27 04:51:12;;;;;;;4.88;2.70;;;6.20;77.50;;;;;;4957900;29;20024;-77
2023/12/27 04:53:38;;;;;;;3.70;2.00;;;6.10;77.70;;;;;;4955585;29;20043;-75
2023/12/27 04:56:03;;;;;;;6.00;2.70;;;6.00;78.50;;;;;;4957696;29;20031;-75
2023/12/27 04:58:29;;;;;;;7.28;2.60;;;5.90;79.30;;;;;;4974601;28;20055;-75
2023/12/27 05:00:55;;;;;;;7.05;2.78;;;5.90;79.20;;;;;;4977156;28;20019;-74
2023/12/27 05:03:20;;;;;;;6.75;2.42;;;5.90;79.30;;;;;;4977013;28;20093;-76
2023/12/27 05:05:46;;;;;;;7.65;2.70;;;5.80;79.40;;;;;;4959623;28;20029;-76
2023/12/27 05:08:11;;;;;;;9.93;2.92;;;5.80;79.40;;;;;;4976985;28;20513;-76
2023/12/27 05:10:37;;;;;;;6.18;2.70;;;5.70;79.60;;;;;;4976796;28;20494;-76
2023/12/27 05:13:03;;;;;;;4.95;3.03;;;5.70;79.90;;;;;;4983851;28;20039;-75
2023/12/27 05:15:28;;;;;;;5.55;2.90;;;5.70;80.90;;;;;;4977191;28;20030;-77
2023/12/27 05:17:54;;;;;;;7.72;2.53;;;5.70;80.00;;;;;;4976885;28;20054;-76
2023/12/27 05:20:19;;;;;;;9.82;2.65;;;5.80;79.80;;;;;;4976763;28;20023;-76
2023/12/27 05:22:45;;;;;;;5.57;2.83;;;5.80;79.60;;;;;;4959421;28;20076;-76
2023/12/27 05:25:11;;;;;;;3.55;1.90;;;5.80;79.50;;;;;;4976723;28;20490;-76
2023/12/27 05:27:37;;;;;;;6.35;2.65;;;5.90;79.40;;;;;;4976798;28;20034;-77
2023/12/27 05:30:03;;;;;;;9.07;3.42;;;5.90;79.40;;;;;;4976371;28;20030;-77
2023/12/27 05:32:29;;;;;;;7.88;2.85;;;5.90;79.10;;;;;;4975614;28;20023;-76
2023/12/27 05:34:54;;;;;;;6.68;2.88;;;6.00;78.90;;;;;;4976598;28;20395;-76
2023/12/27 05:37:20;;;;;;;4.88;2.60;;;6.00;78.70;;;;;;4976398;28;20015;-75
2023/12/27 05:39:46;;;;;;;7.38;3.00;;;6.10;78.40;;;;;;4976518;28;20157;-77
2023/12/27 05:42:13;;;;;;;5.10;2.45;;;6.10;78.20;;;;;;4976456;28;20549;-77
2023/12/27 05:44:39;;;;;;;10.15;3.08;;;6.10;78.10;;;;;;4976288;28;20015;-76
2023/12/27 05:47:05;;;;;;;7.35;3.30;;;6.00;77.70;;;;;;4958947;28;20390;-76
2023/12/27 05:49:30;;;;;;;6.70;2.60;;;6.00;77.50;;;;;;4976212;28;20102;-74
2023/12/27 05:51:56;;;;;;;4.53;2.38;;;6.00;77.40;;;;;;4976257;28;20205;-77
2023/12/27 05:54:23;;;;;;;7.35;3.97;;;6.00;77.20;;;;;;4976208;28;20483;-75
2023/12/27 05:56:49;;;;;;;6.88;3.10;;;6.00;76.90;;;;;;4976019;28;20042;-74
2023/12/27 05:59:15;;;;;;;4.05;2.25;;;6.00;76.80;;;;;;4976135;28;20497;-74
2023/12/27 06:01:47;;;;;;;6.32;2.55;;;5.90;76.70;;;;;;4976043;28;20027;-75
2023/12/27 06:04:14;;;;;;;6.72;2.95;;;5.90;76.90;;;;;;4976073;28;20391;-75
2023/12/27 06:06:40;;;;;;;10.63;4.25;;;5.80;77.00;;;;;;4975999;28;20030;-75
2023/12/27 06:09:05;;;;;;;6.82;3.92;;;5.70;77.60;;;;;;4976043;28;20027;-77
2023/12/27 06:11:31;;;;;;;8.48;4.78;;;5.60;77.80;;;;;;4975595;28;20030;-75
2023/12/27 06:13:57;;;;;;;8.20;3.90;;;5.60;78.00;;;;;;4975652;28;20090;-74
2023/12/27 06:16:22;;;;;;;7.75;4.68;;;5.60;78.00;;;;;;4958337;28;20022;-75
2023/12/27 06:18:48;;;;;;;9.15;4.95;;;5.50;78.20;;;;;;4975852;28;20073;-76
2023/12/27 06:21:13;;;;;;;10.05;5.20;;;5.50;79.00;;;;;;4975795;28;20031;-76
2023/12/27 06:23:39;;;;;;;11.38;5.35;;;5.50;78.20;;;;;;4975807;28;20034;-76
2023/12/27 06:26:06;;;;;;;13.80;5.43;;;5.40;78.50;;;;;;4975460;28;20026;-77
2023/12/27 06:28:32;;;;;;;9.40;4.93;;;5.50;78.70;;;;;;4958239;28;20031;-77
2023/12/27 06:30:58;;;;;;;8.15;5.05;;;5.50;78.70;;;;;;4958275;28;20441;-76
2023/12/27 06:33:23;;;;;;;10.75;5.22;;;5.50;78.60;;;;;;4975211;28;20105;-76
2023/12/27 06:35:49;;;;;;;8.82;4.85;;;5.50;78.40;;;;;;4975319;28;20022;-77
2023/12/27 06:38:14;;;;;;;15.68;5.75;;;5.50;78.30;;;;;;4975474;28;20023;-76
2023/12/27 06:40:40;;;;;;;10.80;4.95;;;5.40;78.10;;;;;;4975454;28;20050;-76
2023/12/27 06:43:06;;;;;;;7.45;4.85;;;5.40;77.80;;;;;;4978533;28;20049;-75
2023/12/27 06:45:32;;;;;;;5.88;3.35;;;5.40;77.70;;;;;;4958100;28;20086;-75
2023/12/27 06:47:58;;;;;;;7.82;4.32;;;5.40;75.50;;;;;;4975113;28;20054;-75
2023/12/27 06:50:23;;;;;;;11.27;5.07;;;5.50;75.90;;;;;;4975089;28;20030;-75
2023/12/27 06:52:49;;;;;;;11.30;3.63;;;5.40;76.40;;;;;;4974996;28;20026;-75
2023/12/27 06:55:15;;;;;;;6.22;3.17;;;5.40;71.90;;;;;;4975195;28;20030;-75
2023/12/27 06:57:40;;;;;;;6.30;3.22;;;5.60;70.00;;;;;;4974868;28;20097;-77
2023/12/27 07:00:07;;;;;;;8.63;2.70;;;5.70;67.80;;;;;;4975054;28;20063;-73
2023/12/27 07:02:32;;;;;;;6.05;2.83;;;5.80;65.00;;;;;;4975128;28;20022;-76
2023/12/27 07:04:58;;;;;;;9.07;3.85;;;6.00;65.30;;;;;;4974896;28;20037;-77
2023/12/27 07:07:24;;;;;;;6.28;3.55;;;6.10;65.90;;;;;;4957625;28;20106;-78
2023/12/27 07:09:50;;;;;;;5.93;3.70;;;6.10;67.10;;;;;;4974991;28;20027;-78
2023/12/27 07:12:16;;;;;;;8.57;4.15;;;6.10;67.00;;;;;;4974946;28;20026;-76
2023/12/27 07:14:41;;;;;;;6.80;4.47;;;6.10;67.80;;;;;;4974709;28;20034;-77
2023/12/27 07:17:07;;;;;;;4.97;3.80;;;6.10;68.60;;;;;;4974790;28;20031;-76
2023/12/27 07:19:32;;;;;;;9.10;4.45;;;6.10;68.20;;;;;;4974980;28;20030;-76
2023/12/27 07:21:58;;;;;;;7.50;4.43;;;6.10;68.70;;;;;;4974788;28;20550;-76
2023/12/27 07:24:23;;;;;;;7.50;4.25;;;6.10;69.10;;;;;;4974821;28;20030;-76
2023/12/27 07:26:50;;;;;;;9.27;5.75;;;6.10;68.40;;;;;;4974737;28;20022;-76
2023/12/27 07:29:15;;;;;;;7.75;4.40;;;6.00;70.20;;;;;;4957140;28;20563;-77
2023/12/27 07:31:41;;;;;;;5.85;2.60;;;5.90;69.70;;;;;;4974654;28;20058;-76
2023/12/27 07:34:06;;;;;;;3.38;2.38;;;5.90;66.70;;;;;;4974446;28;20074;-77
2023/12/27 07:36:32;;;;;;;6.35;3.40;;;6.00;62.80;;;;;;4974390;28;20102;-77
2023/12/27 07:38:58;;;;;;;6.43;3.20;;;6.10;60.00;;;;;;4974410;28;20023;-77
2023/12/27 07:41:23;;;;;;;7.10;3.22;;;6.20;61.00;;;;;;4974790;28;20031;-77
2023/12/27 07:43:49;;;;;;;7.15;4.20;;;6.30;60.50;;;;;;4975069;28;20476;-77
2023/12/27 07:46:14;;;;;;;6.63;4.32;;;6.30;63.40;;;;;;4974279;28;20117;-78
2023/12/27 07:48:40;;;;;;;12.73;5.35;;;6.30;64.40;;;;;;4974916;28;20038;-77
2023/12/27 07:51:07;;;;;;;7.18;2.72;;;6.30;65.20;;;;;;4975323;28;20035;-77
2023/12/27 07:53:33;;;;;;;7.53;4.57;;;6.20;60.50;;;;;;4965404;28;20503;-78
2023/12/27 07:55:58;;;;;;;6.82;4.43;;;6.40;61.30;;;;;;4955444;29;20031;-78
2023/12/27 07:58:24;;;;;;;6.28;3.72;;;6.40;61.60;;;;;;4956542;29;20520;-76
2023/12/27 08:00:50;;;;;;;9.40;5.07;;;6.50;59.90;;;;;;4955612;28;20027;-76
2023/12/27 08:03:15;;;;;;;10.05;3.95;;;6.60;61.70;;;;;;4955831;29;20090;-77
2023/12/27 08:05:41;;;;;;;12.65;5.00;;;6.60;57.70;;;;;;4958065;28;20026;-77
2023/12/27 08:08:06;;;;;;;7.63;4.75;;;6.70;61.80;;;;;;4955713;29;20110;-77
2023/12/27 08:10:32;;;;;;;8.70;4.82;;;6.70;62.00;;;;;;4955740;28;20035;-77
2023/12/27 08:12:58;;;;;;;10.63;5.40;;;6.80;62.00;;;;;;4955310;29;20030;-77
2023/12/27 08:15:24;;;;;;;11.13;5.15;;;6.80;61.60;;;;;;4954811;28;20035;-78
2023/12/27 08:17:49;;;;;;;9.52;3.92;;;6.90;62.30;;;;;;4954749;29;20155;-77
2023/12/27 08:20:15;;;;;;;9.65;4.82;;;6.90;58.90;;;;;;4954594;29;20046;-78
2023/12/27 08:22:40;;;;;;;4.15;3.03;;;7.00;60.10;;;;;;4954653;29;20392;-77
2023/12/27 08:25:12;;;;;;;5.57;2.83;;;7.10;58.40;;;;;;4954562;28;20027;-76
2023/12/27 08:27:38;;;;;;;4.28;2.75;;;7.20;53.90;;;;;;4954645;29;20114;-75
2023/12/27 08:30:05;;;;;;;6.55;2.35;;;7.30;53.90;;;;;;4954789;29;20055;-75
2023/12/27 08:32:30;;;;;;;2.97;1.88;;;7.60;63.00;;;;;;4954653;29;20020;-78
2023/12/27 08:34:56;;;;;;;3.70;1.63;;;7.90;59.10;;;;;;4954802;28;20389;-78
2023/12/27 08:37:21;;;;;;;4.32;1.70;;;8.30;57.40;;;;;;4955504;28;20170;-79
2023/12/27 08:39:48;;;;;;;3.10;1.90;;;8.90;50.30;;;;;;4955607;29;20031;-79
2023/12/27 08:42:14;;;;;;;2.60;1.52;;;9.30;45.70;;;;;;4955640;28;20035;-76
2023/12/27 08:44:39;;;;;;;6.40;2.17;;;9.40;45.20;;;;;;4955012;29;20035;-78
2023/12/27 08:47:05;;;;;;;4.28;1.77;;;9.80;46.50;;;;;;4954656;28;20111;-78
2023/12/27 08:49:31;;;;;;;3.83;2.72;;;10.10;43.60;;;;;;4954496;28;20027;-79
2023/12/27 08:51:56;;;;;;;8.57;6.35;;;10.20;43.60;;;;;;4954987;29;20063;-80
2023/12/27 08:54:22;;;;;;;4.40;3.50;;;10.50;44.10;;;;;;5041804;23;20055;-77
2023/12/27 08:56:48;;;;;;;2.65;1.90;;;11.00;42.60;;;;;;4937428;29;20385;-76
2023/12/27 08:59:14;;;;;;;2.92;1.90;;;11.50;40.60;;;;;;4937010;29;20027;-77
2023/12/27 09:01:39;;;;;;;2.20;1.48;;;12.00;39.70;;;;;;4937560;29;20543;-78
2023/12/27 09:04:05;;;;;;;3.97;1.58;;;12.40;36.70;;;;;;4937284;29;20047;-78
2023/12/27 09:06:31;;;;;;;4.13;1.55;;;12.80;36.20;;;;;;4938184;29;20027;-78
2023/12/27 09:08:56;;;;;;;2.00;1.40;;;13.00;35.10;;;;;;4940829;29;20031;-80
2023/12/27 09:11:22;;;;;;;3.15;1.70;;;13.10;33.60;;;;;;4940631;29;20023;-79
2023/12/27 09:13:48;;;;;;;3.72;1.80;;;13.00;34.90;;;;;;4940671;29;20071;-79
2023/12/27 09:16:13;;;;;;;2.08;1.55;;;12.80;33.30;;;;;;4940459;29;20035;-77
2023/12/27 09:18:39;;;;;;;1.92;1.50;;;12.80;34.00;;;;;;4991055;23;20062;-77
2023/12/27 09:21:06;;;;;;;4.18;1.45;;;12.30;31.00;;;;;;4939380;29;20028;-80
2023/12/27 09:23:31;;;;;;;3.30;1.80;;;12.10;33.40;;;;;;4937826;29;20118;-75
2023/12/27 09:25:57;;;;;;;4.35;2.13;;;12.00;32.20;;;;;;4938914;29;20684;-77
2023/12/27 09:28:25;;;;;;;4.45;1.60;;;11.90;32.40;;;;;;4937787;29;20389;-77
2023/12/27 09:30:54;;;;;;;3.47;1.40;;;11.90;32.50;;;;;;4941152;29;20051;-76
2023/12/27 09:33:19;;;;;;;2.55;1.50;;;12.00;32.10;;;;;;4953077;29;20039;-74
2023/12/27 09:35:45;;;;;;;3.22;1.63;;;12.20;32.10;;;;;;4956120;29;20034;-76
2023/12/27 09:38:11;;;;;;;3.67;1.48;;;12.40;31.30;;;;;;4956979;29;20024;-75
2023/12/27 09:40:36;;;;;;;2.65;1.48;;;12.50;31.40;;;;;;4957978;29;20408;-75
2023/12/27 09:43:12;;;;;;;2.50;1.40;;;12.60;31.70;;;;;;4938625;29;20473;-76
2023/12/27 09:45:37;;;;;;;;;;;12.80;31.70;;;;;;4937318;29;20051;-76
2023/12/27 09:48:04;;;;;;;;;;;13.20;31.30;;;;;;4936498;29;20359;-77
2023/12/27 09:50:30;;;;;;;3.38;1.38;;;13.30;29.80;;;;;;4936491;29;19906;-80
2023/12/27 09:52:57;;;;;;;2.70;1.38;;;13.40;28.80;;;;;;4937660;29;20063;-80
2023/12/27 09:55:23;;;;;;;2.53;1.13;;;13.60;28.70;;;;;;4936693;29;20400;-79
2023/12/27 09:57:49;;;;;;;1.23;1.10;;;13.80;27.70;;;;;;4936632;29;20028;-79
2023/12/27 10:00:16;;;;;;;1.20;1.10;;;14.00;27.60;;;;;;4936818;29;20028;-77
2023/12/27 10:03:45;;;;;;;1.92;1.20;;;14.20;27.50;;;;;;4936189;29;20036;-79
2023/12/27 10:06:33;;;;;;;3.08;1.35;;;14.40;26.40;;;;;;4929738;23;20059;-80
2023/12/27 10:09:00;;;;;;;1.25;1.00;;;14.60;27.10;;;;;;4917108;29;20546;-79
2023/12/27 10:11:27;;;;;;;1.42;1.00;;;14.90;26.60;;;;;;4918581;29;20090;-79
2023/12/27 10:13:53;;;;;;;1.90;1.13;;;15.20;25.90;;;;;;4917526;29;20086;-79
2023/12/27 10:16:19;;;;;;;1.75;1.10;;;15.50;24.90;;;;;;4917084;29;20024;-79
2023/12/27 10:18:46;;;;;;;4.20;1.20;;;15.60;23.60;;;;;;4916599;29;20121;-79
2023/12/27 10:21:13;;;;;;;1.23;1.00;;;15.60;23.70;;;;;;4918451;29;20111;-79
2023/12/27 10:23:39;;;;;;;1.75;1.50;;;15.50;23.30;;;;;;4916665;29;20068;-79
2023/12/27 10:26:05;;;;;;;2.50;1.67;;;15.30;22.50;;;;;;4918148;29;20055;-80
2023/12/27 10:28:31;;;;;;;12.73;7.15;;;15.00;23.60;;;;;;4920557;29;20157;-78
2023/12/27 10:30:56;;;;;;;6.75;3.67;;;15.00;23.10;;;;;;4921067;29;20524;-76
2023/12/27 10:33:23;;;;;;;2.25;1.25;;;15.00;23.00;;;;;;4925392;29;20040;-79
2023/12/27 10:35:49;;;;;;;1.85;1.30;;;14.90;21.70;;;;;;4926915;29;20024;-78
2023/12/27 10:38:15;;;;;;;2.30;1.50;;;14.90;20.80;;;;;;4927560;29;20032;-79
2023/12/27 10:40:42;;;;;;;10.32;5.20;;;15.10;21.40;;;;;;4925821;29;20028;-76
2023/12/27 10:43:08;;;;;;;2.42;1.90;;;15.60;22.50;;;;;;4920263;29;20025;-79
2023/12/27 10:45:35;;;;;;;1.58;1.00;;;16.20;21.40;;;;;;4916837;29;20107;-78
2023/12/27 10:48:06;;;;;;;1.33;0.90;;;16.30;19.80;;;;;;4916772;29;20096;-79
2023/12/27 10:50:33;;;;;;;1.55;0.80;;;16.30;17.10;;;;;;4916550;29;20120;-79
2023/12/27 10:53:06;;;;;;;3.42;1.35;;;16.60;17.00;;;;;;4916208;29;20418;-78
2023/12/27 10:55:33;;;;;;;1.10;1.00;;;17.10;16.50;;;;;;4916532;29;20424;-79
2023/12/27 10:58:02;;;;;;;1.77;1.08;;;17.20;15.50;;;;;;4916469;29;20024;-79
2023/12/27 11:00:29;;;;;;;2.33;1.13;;;17.50;15.50;;;;;;4916421;29;20040;-78
2023/12/27 11:02:57;;;;;;;1.85;0.95;;;17.80;16.50;;;;;;4900319;29;20031;-78
2023/12/27 11:05:25;;;;;;;1.13;1.02;;;18.50;14.60;;;;;;4916104;29;20075;-79
2023/12/27 11:07:53;;;;;;;0.82;0.82;;;18.80;13.40;;;;;;4916100;29;20036;-80
2023/12/27 11:10:21;;;;;;;1.98;1.10;;;19.10;14.10;;;;;;4916273;29;20127;-78
2023/12/27 11:12:47;;;;;;;1.42;0.90;;;19.70;13.80;;;;;;4916033;29;20024;-80
2023/12/27 11:15:14;;;;;;;2.45;1.40;;;20.60;12.40;;;;;;4916096;29;20433;-79
2023/12/27 11:17:41;;;;;;;1.30;1.05;;;21.30;11.70;;;;;;4915917;29;20024;-78
2023/12/27 11:20:10;;;;;;;3.00;1.00;;;21.20;10.50;;;;;;4916335;29;20087;-78
2023/12/27 11:22:39;;;;;;;1.58;1.10;;;21.90;10.90;;;;;;4915858;29;20118;-76
2023/12/27 11:25:06;;;;;;;3.22;1.33;;;22.40;8.80;;;;;;4915830;29;20063;-74
2023/12/27 11:27:32;;;;;;;1.38;0.90;;;23.10;9.80;;;;;;4900121;29;20442;-75
2023/12/27 11:29:58;;;;;;;1.77;1.00;;;23.20;7.70;;;;;;4915021;29;20038;-76
2023/12/27 11:32:25;;;;;;;1.10;1.00;;;23.70;8.50;;;;;;4915957;29;20042;-75
2023/12/27 11:34:54;;;;;;;2.40;1.02;;;24.40;8.00;;;;;;4915908;29;20104;-76
2023/12/27 11:37:23;;;;;;;1.80;0.90;;;25.00;8.20;;;;;;4916860;29;20038;-75
2023/12/27 11:39:51;;;;;;;0.77;0.70;;;25.60;7.50;;;;;;4915680;29;20032;-75
2023/12/27 11:42:17;;;;;;;3.47;0.80;;;25.60;5.10;;;;;;4899799;29;20036;-75
2023/12/27 11:44:53;;;;;;;1.35;0.90;;;26.20;6.30;;;;;;4915756;29;20087;-75
2023/12/27 11:47:23;;;;;;;2.00;0.80;;;25.90;5.50;;;;;;4916413;29;20119;-75
2023/12/27 11:50:14;;;;;;;0.50;0.50;;;24.90;7.40;;;;;;4901074;29;20036;-75
2023/12/27 11:52:46;;;;;;;1.60;1.15;;;23.80;7.00;;;;;;4916055;29;20024;-76
2023/12/27 11:55:16;;;;;;;0.80;0.80;;;22.30;8.90;;;;;;4916485;29;20032;-77
2023/12/27 11:57:43;;;;;;;0.80;0.80;;;21.00;10.00;;;;;;4917995;29;20119;-75
2023/12/27 12:00:11;;;;;;;1.17;0.90;;;20.50;11.30;;;;;;4915522;29;20064;-76
2023/12/27 12:02:47;;;;;;;1.30;1.00;;;20.00;11.50;;;;;;4915121;29;20046;-76
2023/12/27 12:05:29;;;;;;;4.25;1.35;;;19.80;12.60;;;;;;4915262;29;20048;-76
2023/12/27 12:08:13;;;;;;;2.00;1.20;;;19.80;11.60;;;;;;4915095;29;20390;-76
2023/12/27 12:10:40;;;;;;;2.95;1.05;;;20.30;11.80;;;;;;4915371;29;20418;-74
2023/12/27 12:13:07;;;;;;;1.13;0.90;;;20.20;12.20;;;;;;4915614;29;20501;-78
2023/12/27 12:15:32;;;;;;;2.45;1.05;;;20.20;12.20;;;;;;4916365;29;20473;-74
2023/12/27 12:17:59;;;;;;;0.95;0.70;;;19.80;13.00;;;;;;4915502;29;20083;-74
2023/12/27 12:20:27;;;;;;;3.03;1.05;;;19.40;13.50;;;;;;4915258;29;20091;-76
2023/12/27 12:22:53;;;;;;;1.08;0.90;;;19.30;13.90;;;;;;4916239;29;20425;-74
2023/12/27 12:25:24;;;;;;;1.25;0.90;;;19.20;14.40;;;;;;4915417;29;20039;-75
2023/12/27 12:27:50;;;;;;;3.10;0.85;;;18.70;14.80;;;;;;4916476;29;20120;-74
2023/12/27 12:30:16;;;;;;;1.25;0.98;;;18.50;15.50;;;;;;4915304;29;20127;-77
2023/12/27 12:32:41;;;;;;;1.90;1.00;;;18.60;16.00;;;;;;4915116;29;20027;-75
2023/12/27 12:35:10;;;;;;;1.50;1.13;;;18.50;16.20;;;;;;4915170;29;20035;-74
2023/12/27 12:37:40;;;;;;;1.20;0.90;;;18.50;16.50;;;;;;4915301;29;20024;-75
2023/12/27 12:40:10;;;;;;;1.35;0.90;;;18.70;16.20;;;;;;4915323;29;20548;-76
2023/12/27 12:42:36;;;;;;;1.60;1.00;;;18.70;15.70;;;;;;4919186;29;20393;-74
2023/12/27 12:45:04;;;;;;;1.63;1.02;;;18.70;15.60;;;;;;4918502;29;20175;-75
2023/12/27 12:47:31;;;;;;;1.23;0.90;;;19.00;15.80;;;;;;4918966;29;20032;-76
2023/12/27 12:49:56;;;;;;;1.02;0.90;;;19.50;15.40;;;;;;4918621;29;20477;-76
2023/12/27 12:52:22;;;;;;;1.88;1.02;;;20.00;14.20;;;;;;4919715;29;20028;-76